Birch Island, Maine
Current Conditions -  °F | °C
As of 1:53 AM on Thursday 23 Oct 2014 (Local Time) from KIWI Reporting Station
Overcast Overcast  
Wind Chill: 43°   Ceiling: 900
Heat Index: 48°   Visibility: 8mi
Dew Point: 46°   Wind: 10mph
Humidity: 93%   Direction: 50°NE
Pressure: 29.95"   Gusts: 20mph
Location:  43.903°N, 69.9809°W
Report Text: KIWI 230553Z AUTO 05009G17KT 360V080 8SM OVC009 09/08 A2995 RMK AO2 RAB18E28 CIG 006V013 SLP142 P0000 60000 T00890078 10094 20089 56018
Loading
Personal Weather Stations






























Interactive Weather Map
Tropical Storm Tracking
New forecast layout! Learn more

10-Day Weather Forecast

Advertisements
Track Severe Weather on mobile